Terminal Aerodrome Forecast
Issued by NWS

Home | Current Version | Previous Version | Text Only | Print | Product List | Glossary On
Versions: 1 2 3 4 5 6 7 8 9 10 11 12 13 14 15 16 17 18 19 20 21 22 23 24 25 26
000
FTAK31 PAFA 232336
TAFASC
TAF
PASC 232336Z 2400/2424 07015KT P6SM FEW005 SCT015 SCT200
     FM240600 07015KT P6SM SCT007 BKN015
     FM240900 07015KT 4SM BR BKN007 OVC015
     FM241800 07015G25KT 4SM BR BKN007 OVC015=

USA.gov is the U.S. government's official web portal to all federal, state and local government web resources and services.